Center Moriches, New York
Current Conditions -  °F | °C
As of 8:56 PM on Friday 24 Oct 2014 (Local Time) from KHWV Reporting Station
Clear Clear  
Wind Chill: 47°   Ceiling: Unl
Heat Index: 49°   Visibility: 10mi
Dew Point: 44°   Wind: 5mph
Humidity: 83%   Direction: 320°NW
Pressure: 29.81"   Gusts: NA
Location:  40.8°N, 72.79°W
Report Text: KHWV 250056Z AUTO 32004KT 10SM CLR 09/07 A2981 RMK AO2 SLP094 T00940067 TSNO
Loading
Personal Weather Stations






























Interactive Weather Map
Tropical Storm Tracking
New forecast layout! Learn more

10-Day Weather Forecast

Advertisements
Track Severe Weather on mobile